Bookmark and Share
Track history (hours):
 

Earl Gonsoulin

More information available from US FCC via Universal Licensing System and Coast Guard Vessel Documentation Center.

Last reported at 2014-Apr-20 11:31 UTC. Time now 2014-Apr-20 11:51 UTC.
Position N 29°45' W 095°06'.

Length 20 m; draft 2.9 m.

Type: Tug. MMSI: 367005550.

NotesDate/timePositionNaut miles runAvg speedWind from/ knotsBaromVisibWave heightAir tempDewpointWater temp
2014-Apr-20 11:31N 29°45' W 095°06'0 0.0
2014-Apr-20 10:31N 29°45' W 095°06'0 0.0
2014-Apr-20 09:33N 29°45' W 095°06'0 0.0
2014-Apr-20 08:24N 29°45' W 095°06'0 0.0
2014-Apr-20 07:32N 29°45' W 095°06'0 0.0
2014-Apr-20 06:34N 29°45' W 095°06'0 0.0
2014-Apr-20 05:25N 29°45' W 095°06'0 0.0
2014-Apr-20 04:33N 29°45' W 095°06'0 0.0
2014-Apr-20 03:26N 29°45' W 095°06'2 0.2
2014-Apr-19 18:03N 29°47' W 095°06'0 0.0
2014-Apr-19 06:33N 29°47' W 095°06'3 0.6
2014-Apr-19 00:32N 29°44' W 095°09'2 0.1
2014-Apr-17 21:33N 29°45' W 095°11'5 3.8
2014-Apr-17 20:17N 29°46' W 095°06'0 0.0
2014-Apr-17 01:15N 29°46' W 095°05'3 4.3
2014-Apr-17 00:33N 29°44' W 095°08'0 0.0
2014-Apr-16 21:27N 29°44' W 095°08'3 2.3
2014-Apr-16 20:16N 29°46' W 095°06'3 3.5
2014-Apr-16 19:26N 29°44' W 095°08'0 0.0
2014-Apr-16 18:23N 29°44' W 095°08'0 0.0
2014-Apr-16 17:32N 29°44' W 095°08'0 0.0
2014-Apr-16 16:27N 29°44' W 095°08'0 0.0
2014-Apr-16 15:33N 29°44' W 095°08'0 0.0
2014-Apr-16 14:31N 29°44' W 095°08'0 0.0
2014-Apr-16 13:22N 29°44' W 095°08'0 0.0
2014-Apr-16 04:30N 29°44' W 095°08'0 0.0
2014-Apr-15 21:33N 29°44' W 095°08'5 3.1
2014-Apr-15 20:03N 29°47' W 095°04'2 3.6
2014-Apr-15 19:29N 29°46' W 095°05'1 0.0
2014-Apr-13 21:20N 29°45' W 095°06'0 0.0
2014-Apr-13 15:26N 29°45' W 095°06'1 1.3
2014-Apr-13 14:26N 29°46' W 095°05'1 0.0
2014-Apr-11 23:20N 29°47' W 095°06'0 0.2
2014-Apr-11 22:03N 29°46' W 095°06'0 0.5
2014-Apr-11 21:33N 29°47' W 095°06'1 1.2
2014-Apr-11 20:33N 29°46' W 095°06'3 1.3
2014-Apr-11 18:20N 29°44' W 095°08'0 0.0
2014-Apr-11 17:31N 29°44' W 095°08'0 0.0
2014-Apr-11 15:24N 29°44' W 095°08'0 0.0
2014-Apr-11 14:33N 29°44' W 095°08'0 0.0
2014-Apr-11 00:21N 29°44' W 095°08'0 0.0
2014-Apr-10 23:29N 29°44' W 095°08'0 0.0
2014-Apr-10 20:29N 29°44' W 095°08'0 0.0
2014-Apr-10 19:28N 29°44' W 095°08'0 0.0
2014-Apr-10 18:33N 29°44' W 095°08'0 0.0
2014-Apr-10 14:26N 29°44' W 095°08'3 3.9
2014-Apr-10 13:33N 29°46' W 095°05'2 1.6
2014-Apr-10 12:20N 29°47' W 095°04'  

Dump ship's entire track history

sailing weather and tide predictions

Earl Gonsoulin — WDC3306 — position and weather